sensor_id;sensor_type;location;lat;lon;timestamp;temperature;humidity
67165;SHT31;54093;50.014;19.984;2023-06-10T00:04:06;18.16;78.99
67165;SHT31;54093;50.014;19.984;2023-06-10T00:13:27;18.22;78.69
67165;SHT31;54093;50.014;19.984;2023-06-10T00:22:48;18.16;79.43
67165;SHT31;54093;50.014;19.984;2023-06-10T00:32:09;18.12;79.62
67165;SHT31;54093;50.014;19.984;2023-06-10T00:41:30;18.20;79.04
67165;SHT31;54093;50.014;19.984;2023-06-10T00:51:00;18.26;78.82
67165;SHT31;54093;50.014;19.984;2023-06-10T01:00:21;18.34;78.46
67165;SHT31;54093;50.014;19.984;2023-06-10T01:19:17;18.09;78.78
67165;SHT31;54093;50.014;19.984;2023-06-10T01:28:58;18.05;78.83
67165;SHT31;54093;50.014;19.984;2023-06-10T01:38:19;18.00;79.16
67165;SHT31;54093;50.014;19.984;2023-06-10T01:47:41;17.96;79.07
67165;SHT31;54093;50.014;19.984;2023-06-10T01:57:04;17.95;78.93
67165;SHT31;54093;50.014;19.984;2023-06-10T02:06:26;17.91;79.31
67165;SHT31;54093;50.014;19.984;2023-06-10T02:15:52;17.92;79.24
67165;SHT31;54093;50.014;19.984;2023-06-10T02:25:14;17.89;79.46
67165;SHT31;54093;50.014;19.984;2023-06-10T02:34:35;17.96;79.09
67165;SHT31;54093;50.014;19.984;2023-06-10T02:43:57;18.00;79.06
67165;SHT31;54093;50.014;19.984;2023-06-10T02:53:18;18.02;79.12
67165;SHT31;54093;50.014;19.984;2023-06-10T03:02:40;17.99;79.53
67165;SHT31;54093;50.014;19.984;2023-06-10T03:12:01;17.95;79.74
67165;SHT31;54093;50.014;19.984;2023-06-10T03:21:23;17.92;80.56
67165;SHT31;54093;50.014;19.984;2023-06-10T03:30:47;17.91;80.58
67165;SHT31;54093;50.014;19.984;2023-06-10T03:40:09;17.85;80.96
67165;SHT31;54093;50.014;19.984;2023-06-10T03:49:30;17.92;80.54
67165;SHT31;54093;50.014;19.984;2023-06-10T03:58:52;17.93;81.02
67165;SHT31;54093;50.014;19.984;2023-06-10T04:08:14;17.92;80.91
67165;SHT31;54093;50.014;19.984;2023-06-10T04:17:36;17.88;81.09
67165;SHT31;54093;50.014;19.984;2023-06-10T04:26:57;17.88;81.35
67165;SHT31;54093;50.014;19.984;2023-06-10T04:36:17;17.86;82.00
67165;SHT31;54093;50.014;19.984;2023-06-10T04:45:38;17.86;81.88
67165;SHT31;54093;50.014;19.984;2023-06-10T04:55:00;17.86;82.15
67165;SHT31;54093;50.014;19.984;2023-06-10T05:04:20;17.91;81.96
67165;SHT31;54093;50.014;19.984;2023-06-10T05:13:42;17.89;81.50
67165;SHT31;54093;50.014;19.984;2023-06-10T05:23:04;17.96;81.43
67165;SHT31;54093;50.014;19.984;2023-06-10T05:32:29;18.03;81.36
67165;SHT31;54093;50.014;19.984;2023-06-10T05:41:49;18.10;81.37
67165;SHT31;54093;50.014;19.984;2023-06-10T05:51:10;18.26;81.31
67165;SHT31;54093;50.014;19.984;2023-06-10T06:00:35;18.32;80.14
67165;SHT31;54093;50.014;19.984;2023-06-10T06:09:56;18.40;79.41
67165;SHT31;54093;50.014;19.984;2023-06-10T06:19:17;18.47;79.20
67165;SHT31;54093;50.014;19.984;2023-06-10T06:28:38;18.51;78.52
67165;SHT31;54093;50.014;19.984;2023-06-10T06:38:00;18.64;78.52
67165;SHT31;54093;50.014;19.984;2023-06-10T06:47:21;18.75;77.50
67165;SHT31;54093;50.014;19.984;2023-06-10T06:56:42;18.91;77.20
67165;SHT31;54093;50.014;19.984;2023-06-10T07:06:03;18.99;76.65
67165;SHT31;54093;50.014;19.984;2023-06-10T07:15:24;19.14;76.86
67165;SHT31;54093;50.014;19.984;2023-06-10T07:24:45;19.26;74.98
67165;SHT31;54093;50.014;19.984;2023-06-10T07:34:06;19.19;75.78
67165;SHT31;54093;50.014;19.984;2023-06-10T07:43:27;19.29;75.36
67165;SHT31;54093;50.014;19.984;2023-06-10T07:52:48;19.49;74.73
67165;SHT31;54093;50.014;19.984;2023-06-10T08:02:09;19.87;73.85
67165;SHT31;54093;50.014;19.984;2023-06-10T08:11:31;20.22;71.90
67165;SHT31;54093;50.014;19.984;2023-06-10T08:20:52;20.65;70.99
67165;SHT31;54093;50.014;19.984;2023-06-10T08:30:14;21.24;69.68
67165;SHT31;54093;50.014;19.984;2023-06-10T08:39:36;21.54;68.70
67165;SHT31;54093;50.014;19.984;2023-06-10T08:49:02;21.68;67.85
67165;SHT31;54093;50.014;19.984;2023-06-10T08:58:24;21.99;67.83
67165;SHT31;54093;50.014;19.984;2023-06-10T09:07:48;22.41;66.57
67165;SHT31;54093;50.014;19.984;2023-06-10T09:17:12;22.60;62.09
67165;SHT31;54093;50.014;19.984;2023-06-10T09:26:33;22.69;62.17
67165;SHT31;54093;50.014;19.984;2023-06-10T09:35:54;22.92;63.04
67165;SHT31;54093;50.014;19.984;2023-06-10T09:45:18;22.78;61.96
67165;SHT31;54093;50.014;19.984;2023-06-10T09:54:44;22.76;63.09
67165;SHT31;54093;50.014;19.984;2023-06-10T10:04:05;22.85;61.70
67165;SHT31;54093;50.014;19.984;2023-06-10T10:13:29;22.34;61.23
67165;SHT31;54093;50.014;19.984;2023-06-10T10:22:57;21.97;62.33
67165;SHT31;54093;50.014;19.984;2023-06-10T10:32:31;21.82;62.67
67165;SHT31;54093;50.014;19.984;2023-06-10T10:41:56;22.02;66.18
67165;SHT31;54093;50.014;19.984;2023-06-10T10:51:18;22.76;62.22
67165;SHT31;54093;50.014;19.984;2023-06-10T11:00:45;22.32;65.51
67165;SHT31;54093;50.014;19.984;2023-06-10T11:10:08;21.82;65.74
67165;SHT31;54093;50.014;19.984;2023-06-10T11:19:37;21.71;69.40
67165;SHT31;54093;50.014;19.984;2023-06-10T11:29:14;21.55;72.38
67165;SHT31;54093;50.014;19.984;2023-06-10T11:38:37;21.45;71.59
67165;SHT31;54093;50.014;19.984;2023-06-10T11:48:00;21.34;70.18
67165;SHT31;54093;50.014;19.984;2023-06-10T11:57:21;21.52;71.07
67165;SHT31;54093;50.014;19.984;2023-06-10T12:06:50;21.51;67.50
67165;SHT31;54093;50.014;19.984;2023-06-10T12:16:11;21.97;66.78
67165;SHT31;54093;50.014;19.984;2023-06-10T12:25:32;22.68;63.31
67165;SHT31;54093;50.014;19.984;2023-06-10T12:35:27;23.01;62.15
67165;SHT31;54093;50.014;19.984;2023-06-10T12:44:54;23.03;60.74
67165;SHT31;54093;50.014;19.984;2023-06-10T12:54:17;23.36;59.87
67165;SHT31;54093;50.014;19.984;2023-06-10T13:03:40;23.57;56.87
67165;SHT31;54093;50.014;19.984;2023-06-10T13:13:02;23.98;55.42
67165;SHT31;54093;50.014;19.984;2023-06-10T13:22:26;24.11;54.79
67165;SHT31;54093;50.014;19.984;2023-06-10T13:31:47;24.32;54.66
67165;SHT31;54093;50.014;19.984;2023-06-10T13:41:09;23.63;54.40
67165;SHT31;54093;50.014;19.984;2023-06-10T13:50:30;23.43;54.85
67165;SHT31;54093;50.014;19.984;2023-06-10T13:59:53;23.32;55.23
67165;SHT31;54093;50.014;19.984;2023-06-10T14:09:14;23.70;55.51
67165;SHT31;54093;50.014;19.984;2023-06-10T14:18:37;24.28;54.69
67165;SHT31;54093;50.014;19.984;2023-06-10T14:27:59;24.38;53.67
67165;SHT31;54093;50.014;19.984;2023-06-10T14:37:20;24.40;53.92
67165;SHT31;54093;50.014;19.984;2023-06-10T14:46:41;24.11;54.56
67165;SHT31;54093;50.014;19.984;2023-06-10T14:56:02;24.11;53.14
67165;SHT31;54093;50.014;19.984;2023-06-10T15:05:25;23.84;52.60
67165;SHT31;54093;50.014;19.984;2023-06-10T15:14:48;23.57;52.70
67165;SHT31;54093;50.014;19.984;2023-06-10T15:24:10;23.09;53.56
67165;SHT31;54093;50.014;19.984;2023-06-10T15:33:31;22.74;54.75
67165;SHT31;54093;50.014;19.984;2023-06-10T15:42:54;22.72;55.84
67165;SHT31;54093;50.014;19.984;2023-06-10T15:52:18;22.84;55.73
67165;SHT31;54093;50.014;19.984;2023-06-10T16:01:39;22.53;55.63
67165;SHT31;54093;50.014;19.984;2023-06-10T16:11:00;22.34;57.13
67165;SHT31;54093;50.014;19.984;2023-06-10T16:20:21;22.02;59.04
67165;SHT31;54093;50.014;19.984;2023-06-10T16:29:42;21.74;59.50
67165;SHT31;54093;50.014;19.984;2023-06-10T16:39:03;21.52;59.52
67165;SHT31;54093;50.014;19.984;2023-06-10T16:48:24;21.28;59.70
67165;SHT31;54093;50.014;19.984;2023-06-10T16:57:44;21.12;59.89
67165;SHT31;54093;50.014;19.984;2023-06-10T17:07:06;20.84;60.50
67165;SHT31;54093;50.014;19.984;2023-06-10T17:16:27;20.66;61.27
67165;SHT31;54093;50.014;19.984;2023-06-10T17:25:48;20.52;61.95
67165;SHT31;54093;50.014;19.984;2023-06-10T17:35:15;20.43;62.35
67165;SHT31;54093;50.014;19.984;2023-06-10T17:44:44;20.28;63.38
67165;SHT31;54093;50.014;19.984;2023-06-10T17:54:07;20.14;63.72
67165;SHT31;54093;50.014;19.984;2023-06-10T18:03:31;19.97;63.52
67165;SHT31;54093;50.014;19.984;2023-06-10T18:12:54;19.85;64.39
67165;SHT31;54093;50.014;19.984;2023-06-10T18:22:20;19.73;64.92
67165;SHT31;54093;50.014;19.984;2023-06-10T18:31:41;19.66;64.84
67165;SHT31;54093;50.014;19.984;2023-06-10T18:41:04;19.66;65.46
67165;SHT31;54093;50.014;19.984;2023-06-10T18:50:30;19.50;65.92
67165;SHT31;54093;50.014;19.984;2023-06-10T18:59:55;19.36;66.41
67165;SHT31;54093;50.014;19.984;2023-06-10T19:09:16;19.30;66.99
67165;SHT31;54093;50.014;19.984;2023-06-10T19:18:40;19.20;67.39
67165;SHT31;54093;50.014;19.984;2023-06-10T19:28:03;19.15;67.55
67165;SHT31;54093;50.014;19.984;2023-06-10T19:37:25;18.96;68.22
67165;SHT31;54093;50.014;19.984;2023-06-10T19:46:47;18.89;68.63
67165;SHT31;54093;50.014;19.984;2023-06-10T19:56:17;18.83;68.90
67165;SHT31;54093;50.014;19.984;2023-06-10T20:05:48;18.75;69.34
67165;SHT31;54093;50.014;19.984;2023-06-10T20:15:15;18.67;69.81
67165;SHT31;54093;50.014;19.984;2023-06-10T20:24:37;18.60;70.14
67165;SHT31;54093;50.014;19.984;2023-06-10T20:33:59;18.53;70.43
67165;SHT31;54093;50.014;19.984;2023-06-10T20:43:23;18.46;70.40
67165;SHT31;54093;50.014;19.984;2023-06-10T20:52:47;18.36;70.70
67165;SHT31;54093;50.014;19.984;2023-06-10T21:02:11;18.27;70.96
67165;SHT31;54093;50.014;19.984;2023-06-10T21:11:37;18.19;71.53
67165;SHT31;54093;50.014;19.984;2023-06-10T21:21:00;18.19;71.21
67165;SHT31;54093;50.014;19.984;2023-06-10T21:30:21;18.13;71.41
67165;SHT31;54093;50.014;19.984;2023-06-10T21:39:42;18.03;71.42
67165;SHT31;54093;50.014;19.984;2023-06-10T21:49:03;18.00;71.57
67165;SHT31;54093;50.014;19.984;2023-06-10T21:58:25;17.91;71.87
67165;SHT31;54093;50.014;19.984;2023-06-10T22:07:46;17.85;72.14
67165;SHT31;54093;50.014;19.984;2023-06-10T22:17:07;17.82;72.04
67165;SHT31;54093;50.014;19.984;2023-06-10T22:26:31;17.75;71.85
67165;SHT31;54093;50.014;19.984;2023-06-10T22:35:52;17.69;71.97
67165;SHT31;54093;50.014;19.984;2023-06-10T22:45:14;17.69;71.56
67165;SHT31;54093;50.014;19.984;2023-06-10T22:54:36;17.60;72.00
67165;SHT31;54093;50.014;19.984;2023-06-10T23:03:57;17.57;72.07
67165;SHT31;54093;50.014;19.984;2023-06-10T23:15:03;17.45;72.56
67165;SHT31;54093;50.014;19.984;2023-06-10T23:24:26;17.38;72.80
67165;SHT31;54093;50.014;19.984;2023-06-10T23:33:49;17.26;73.06
67165;SHT31;54093;50.014;19.984;2023-06-10T23:43:13;17.12;73.47
67165;SHT31;54093;50.014;19.984;2023-06-10T23:52:34;17.02;73.93
